createdAt,value
2019-03-12T00:01:25.639Z,1.57
2019-03-12T00:04:13.571Z,1.20
2019-03-12T00:07:01.204Z,1.23
2019-03-12T00:09:49.174Z,1.50
2019-03-12T00:12:37.415Z,1.43
2019-03-12T00:15:29.478Z,1.23
2019-03-12T00:18:17.211Z,1.20
2019-03-12T00:21:05.217Z,1.37
2019-03-12T00:23:53.479Z,1.10
2019-03-12T00:26:41.304Z,1.27
2019-03-12T00:29:28.928Z,1.30
2019-03-12T00:32:17.514Z,1.70
2019-03-12T00:35:05.839Z,1.43
2019-03-12T00:37:57.218Z,1.37
2019-03-12T00:40:45.019Z,1.50
2019-03-12T00:43:32.854Z,1.30
2019-03-12T00:46:21.001Z,1.47
2019-03-12T00:49:08.483Z,1.40
2019-03-12T00:51:56.430Z,1.30
2019-03-12T00:54:44.400Z,1.10
2019-03-12T00:57:32.263Z,1.40
2019-03-12T01:00:21.283Z,1.30
2019-03-12T01:03:09.199Z,1.60
2019-03-12T01:05:57.021Z,1.40
2019-03-12T01:08:44.734Z,1.40
2019-03-12T01:11:35.829Z,1.33
2019-03-12T01:14:23.294Z,1.27
2019-03-12T01:17:11.646Z,1.30
2019-03-12T01:20:06.444Z,1.30
2019-03-12T01:22:54.809Z,1.60
2019-03-12T01:25:42.600Z,1.30
2019-03-12T01:28:30.735Z,1.60
2019-03-12T01:31:18.769Z,1.47
2019-03-12T01:34:07.442Z,1.40
2019-03-12T01:36:55.652Z,1.90
2019-03-12T01:39:49.572Z,1.37
2019-03-12T01:42:37.205Z,1.10
2019-03-12T01:45:25.336Z,1.47
2019-03-12T01:48:13.646Z,1.70
2019-03-12T01:51:01.589Z,1.30
2019-03-12T01:53:49.482Z,1.10
2019-03-12T01:56:37.352Z,1.17
2019-03-12T01:59:25.529Z,1.17
2019-03-12T02:02:13.425Z,1.40
2019-03-12T02:05:07.495Z,1.40
2019-03-12T02:07:56.392Z,1.77
2019-03-12T02:10:44.170Z,1.17
2019-03-12T02:13:32.000Z,1.30
2019-03-12T02:16:19.963Z,1.50
2019-03-12T02:19:07.781Z,1.60
2019-03-12T02:21:56.195Z,1.60
2019-03-12T02:24:52.517Z,1.47
2019-03-12T02:27:34.218Z,1.20
2019-03-12T02:30:22.605Z,1.43
2019-03-12T02:33:10.359Z,1.00
2019-03-12T02:35:57.827Z,1.23
2019-03-12T02:38:45.766Z,1.20
2019-03-12T02:41:33.451Z,1.50
2019-03-12T02:44:20.935Z,1.13
2019-03-12T02:47:12.769Z,1.63
2019-03-12T02:50:01.171Z,1.67
2019-03-12T02:52:49.845Z,1.20
2019-03-12T02:55:38.115Z,1.43
2019-03-12T02:58:28.494Z,1.40
2019-03-12T03:01:16.477Z,1.23
2019-03-12T03:04:04.970Z,1.20
2019-03-12T03:07:14.611Z,1.63
2019-03-12T03:10:02.507Z,1.30
2019-03-12T03:12:50.626Z,2.20
2019-03-12T03:15:42.039Z,1.50
2019-03-12T03:18:29.956Z,1.10
2019-03-12T03:21:18.222Z,1.73
2019-03-12T03:24:06.198Z,1.53
2019-03-12T03:26:54.523Z,1.03
2019-03-12T03:29:45.284Z,1.30
2019-03-12T03:32:36.206Z,1.57
2019-03-12T03:35:23.833Z,1.40
2019-03-12T03:38:11.636Z,1.50
2019-03-12T03:40:59.360Z,1.50
2019-03-12T03:43:47.209Z,1.60
2019-03-12T03:46:35.080Z,1.20
2019-03-12T03:49:23.936Z,1.40
2019-03-12T03:52:11.779Z,1.77
2019-03-12T03:54:59.909Z,1.33
2019-03-12T03:57:47.831Z,1.20
2019-03-12T04:00:35.708Z,1.83
2019-03-12T04:03:23.797Z,1.17
2019-03-12T04:06:11.888Z,1.30
2019-03-12T04:08:59.980Z,1.60
2019-03-12T04:11:47.572Z,1.50
2019-03-12T04:14:36.408Z,1.50
2019-03-12T04:17:24.429Z,1.57
2019-03-12T04:20:12.665Z,1.70
2019-03-12T04:23:00.118Z,1.97
2019-03-12T04:25:49.474Z,1.90
2019-03-12T04:28:40.327Z,1.77
2019-03-12T04:31:29.004Z,1.70
2019-03-12T04:34:19.423Z,1.93
2019-03-12T04:37:17.073Z,2.00
2019-03-12T04:40:07.329Z,1.57
2019-03-12T04:42:55.320Z,1.57
2019-03-12T04:45:43.030Z,1.50
2019-03-12T04:48:30.745Z,2.03
2019-03-12T04:51:21.619Z,1.70
2019-03-12T04:54:09.681Z,1.70
2019-03-12T04:56:57.110Z,2.27
2019-03-12T04:59:45.354Z,1.77
2019-03-12T05:02:33.266Z,1.60
2019-03-12T05:05:20.984Z,1.90
2019-03-12T05:08:08.694Z,2.03
2019-03-12T05:11:04.224Z,1.90
2019-03-12T05:14:23.832Z,2.00
2019-03-12T05:17:19.993Z,1.60
2019-03-12T05:20:10.688Z,2.10
2019-03-12T05:22:58.475Z,1.93
2019-03-12T05:25:47.881Z,1.73
2019-03-12T05:28:35.969Z,2.30
2019-03-12T05:31:25.812Z,1.80
2019-03-12T05:34:13.814Z,2.07
2019-03-12T05:37:01.507Z,1.93
2019-03-12T05:39:49.227Z,2.03
2019-03-12T05:42:36.706Z,2.27
2019-03-12T05:45:24.963Z,1.90
2019-03-12T05:48:12.776Z,2.13
2019-03-12T05:51:00.460Z,2.03
2019-03-12T05:53:49.576Z,2.30
2019-03-12T05:56:38.435Z,1.83
2019-03-12T05:59:26.367Z,2.13
2019-03-12T06:02:14.989Z,2.07
2019-03-12T06:06:16.794Z,1.90
2019-03-12T06:08:56.386Z,2.00
2019-03-12T06:11:55.328Z,1.60
2019-03-12T06:14:42.980Z,1.67
2019-03-12T06:17:30.603Z,1.60
2019-03-12T06:20:36.324Z,2.20
2019-03-12T06:23:35.497Z,1.90
2019-03-12T06:26:50.453Z,1.73
2019-03-12T06:29:40.566Z,1.87
2019-03-12T06:32:49.886Z,1.30
2019-03-12T06:36:13.626Z,1.50
2019-03-12T06:39:15.751Z,1.60
2019-03-12T06:42:16.199Z,1.37
2019-03-12T06:45:13.644Z,1.50
2019-03-12T06:48:28.557Z,1.40
2019-03-12T06:51:38.397Z,1.70
2019-03-12T06:54:45.359Z,1.30
2019-03-12T06:58:28.984Z,1.40
2019-03-12T07:01:36.324Z,1.53
2019-03-12T07:04:37.060Z,1.40
2019-03-12T07:10:37.476Z,2.23
2019-03-12T07:13:34.105Z,1.70
2019-03-12T07:16:39.063Z,1.87
2019-03-12T07:19:51.626Z,1.97
2019-03-12T07:23:07.803Z,2.00
2019-03-12T07:26:05.340Z,1.50
2019-03-12T07:32:38.599Z,1.93
2019-03-12T07:35:50.164Z,1.80
2019-03-12T07:38:52.458Z,1.90
2019-03-12T07:41:56.487Z,1.67
2019-03-12T07:45:03.489Z,1.60
2019-03-12T07:48:28.138Z,2.07
2019-03-12T07:51:33.392Z,1.67
2019-03-12T07:55:38.245Z,2.40
2019-03-12T07:58:36.011Z,1.60
2019-03-12T08:01:33.238Z,1.80
2019-03-12T08:04:54.299Z,1.03
2019-03-12T08:08:04.226Z,1.00
2019-03-12T08:11:03.314Z,1.70
2019-03-12T08:14:10.502Z,1.87
2019-03-12T08:17:08.403Z,1.87
2019-03-12T08:20:21.018Z,1.40
2019-03-12T08:23:19.995Z,1.80
2019-03-12T08:26:15.581Z,1.60
2019-03-12T08:29:28.312Z,1.83
2019-03-12T08:32:27.112Z,1.20
2019-03-12T08:35:32.661Z,1.63
2019-03-12T08:38:37.927Z,1.60
2019-03-12T08:41:36.812Z,1.67
2019-03-12T08:44:41.284Z,1.30
2019-03-12T08:47:41.378Z,1.37
2019-03-12T08:51:06.313Z,1.27
2019-03-12T08:54:09.790Z,1.70
2019-03-12T08:57:22.187Z,1.30
2019-03-12T09:00:19.860Z,1.40
2019-03-12T09:03:47.922Z,1.30
2019-03-12T09:06:48.876Z,1.67
2019-03-12T09:09:49.726Z,1.40
2019-03-12T09:12:48.018Z,1.23
2019-03-12T09:15:53.462Z,1.30
2019-03-12T09:19:03.547Z,1.00
2019-03-12T09:22:16.299Z,1.17
2019-03-12T09:25:22.048Z,1.30
2019-03-12T09:28:34.829Z,1.10
2019-03-12T09:31:43.589Z,1.27
2019-03-12T09:34:48.894Z,1.00
2019-03-12T09:37:46.781Z,0.97
2019-03-12T09:40:44.047Z,1.20
2019-03-12T09:43:51.554Z,0.93
2019-03-12T09:46:51.497Z,1.10
2019-03-12T09:49:45.037Z,1.23
2019-03-12T09:52:44.991Z,1.30
2019-03-12T09:55:42.248Z,1.07
2019-03-12T09:58:42.488Z,1.10
2019-03-12T10:01:41.945Z,1.10
2019-03-12T10:04:48.845Z,1.30
2019-03-12T10:07:50.142Z,1.03
2019-03-12T10:10:57.132Z,1.23
2019-03-12T10:13:57.483Z,1.20
2019-03-12T10:17:07.541Z,1.00
2019-03-12T10:20:16.463Z,1.40
2019-03-12T10:23:23.430Z,1.07
2019-03-12T10:26:36.174Z,1.40
2019-03-12T10:29:45.925Z,1.80
2019-03-12T10:32:58.052Z,1.40
2019-03-12T10:35:55.788Z,0.80
2019-03-12T10:39:25.202Z,1.30
2019-03-12T10:42:30.906Z,1.20
2019-03-12T10:45:38.277Z,0.83
2019-03-12T10:48:26.929Z,1.00
2019-03-12T10:51:15.253Z,1.07
2019-03-12T10:54:03.345Z,1.00
2019-03-12T10:56:51.437Z,1.20
2019-03-12T10:59:39.685Z,0.73
2019-03-12T11:02:27.731Z,1.17
2019-03-12T11:05:17.157Z,0.90
2019-03-12T11:08:07.861Z,1.03
2019-03-12T11:10:56.239Z,0.90
2019-03-12T11:13:45.223Z,0.80
2019-03-12T11:16:33.794Z,0.70
2019-03-12T11:19:21.518Z,0.80
2019-03-12T11:22:08.969Z,0.63
2019-03-12T11:24:56.672Z,0.70
2019-03-12T11:27:44.275Z,0.60
2019-03-12T11:30:31.897Z,0.77
2019-03-12T11:33:24.187Z,0.70
2019-03-12T11:36:11.653Z,0.70
2019-03-12T11:38:59.327Z,1.00
2019-03-12T11:41:48.721Z,0.70
2019-03-12T11:44:36.406Z,0.70
2019-03-12T11:47:26.134Z,0.80
2019-03-12T11:50:16.092Z,0.90
2019-03-12T11:53:07.126Z,1.13
2019-03-12T11:55:55.418Z,0.80
2019-03-12T11:58:43.229Z,0.70
2019-03-12T12:01:31.116Z,1.00
2019-03-12T12:04:19.100Z,1.10
2019-03-12T12:07:07.019Z,1.20
2019-03-12T12:09:55.089Z,1.17
2019-03-12T12:12:42.815Z,0.77
2019-03-12T12:15:30.945Z,1.10
2019-03-12T12:18:18.852Z,1.07
2019-03-12T12:21:06.727Z,1.10
2019-03-12T12:23:54.764Z,0.83
2019-03-12T12:26:42.445Z,0.90
2019-03-12T12:29:29.848Z,0.90
2019-03-12T12:32:17.631Z,1.10
2019-03-12T12:35:06.920Z,0.90
2019-03-12T12:37:55.135Z,1.13
2019-03-12T12:40:42.758Z,1.00
2019-03-12T12:43:30.447Z,0.90
2019-03-12T12:46:18.532Z,1.00
2019-03-12T12:49:07.466Z,0.80
2019-03-12T12:51:55.295Z,0.87
2019-03-12T12:54:42.759Z,1.10
2019-03-12T12:57:31.697Z,1.40
2019-03-12T13:00:20.393Z,1.00
2019-03-12T13:03:08.324Z,1.17
2019-03-12T13:05:56.809Z,1.03
2019-03-12T13:08:44.888Z,1.00
2019-03-12T13:11:32.777Z,1.10
2019-03-12T13:14:20.694Z,1.27
2019-03-12T13:17:08.278Z,1.30
2019-03-12T13:19:56.339Z,1.03
2019-03-12T13:22:44.364Z,1.20
2019-03-12T13:25:32.541Z,1.00
2019-03-12T13:28:20.577Z,1.17
2019-03-12T13:31:08.231Z,1.17
2019-03-12T13:33:56.022Z,1.40
2019-03-12T13:36:44.278Z,1.20
2019-03-12T13:39:33.429Z,1.37
2019-03-12T13:42:23.414Z,1.07
2019-03-12T13:45:12.083Z,1.20
2019-03-12T13:47:59.705Z,1.30
2019-03-12T13:50:47.742Z,0.90
2019-03-12T13:53:35.181Z,1.33
2019-03-12T13:56:22.650Z,1.20
2019-03-12T13:59:10.565Z,1.10
2019-03-12T14:01:58.825Z,1.17
2019-03-12T14:04:46.883Z,1.00
2019-03-12T14:07:34.443Z,1.00
2019-03-12T14:10:22.499Z,0.90
2019-03-12T14:13:10.165Z,1.40
2019-03-12T14:15:59.521Z,1.60
2019-03-12T14:18:48.463Z,1.17
2019-03-12T14:21:42.832Z,1.20
2019-03-12T14:24:30.328Z,0.93
2019-03-12T14:27:18.405Z,0.80
2019-03-12T14:30:08.330Z,1.03
2019-03-12T14:32:56.447Z,1.20
2019-03-12T14:35:51.411Z,1.07
2019-03-12T14:38:33.553Z,1.20
2019-03-12T14:41:20.987Z,1.43
2019-03-12T14:44:12.765Z,1.13
2019-03-12T14:47:00.204Z,1.10
2019-03-12T14:49:47.852Z,1.43
2019-03-12T14:52:39.387Z,1.23
2019-03-12T14:55:26.911Z,1.20
2019-03-12T14:58:14.883Z,1.03
2019-03-12T15:01:02.743Z,0.90
2019-03-12T15:03:50.262Z,1.10
2019-03-12T15:06:38.078Z,1.10
2019-03-12T15:09:25.998Z,1.20
2019-03-12T15:15:07.000Z,0.97
2019-03-12T15:17:55.721Z,1.03
2019-03-12T15:20:43.766Z,1.27
2019-03-12T15:23:31.269Z,1.20
2019-03-12T15:26:19.041Z,1.07
2019-03-12T15:29:07.728Z,0.97
2019-03-12T15:32:04.251Z,0.97
2019-03-12T15:34:44.729Z,1.10
2019-03-12T15:37:32.707Z,1.30
2019-03-12T15:40:20.335Z,0.90
2019-03-12T15:43:11.407Z,1.17
2019-03-12T15:45:59.316Z,0.80
2019-03-12T15:48:47.275Z,1.10
2019-03-12T15:51:35.335Z,1.23
2019-03-12T15:54:23.130Z,1.20
2019-03-12T15:57:11.221Z,1.00
2019-03-12T15:59:59.298Z,1.10
2019-03-12T16:02:47.468Z,1.13
2019-03-12T16:05:36.488Z,1.00
2019-03-12T16:08:23.694Z,1.00
2019-03-12T16:11:22.168Z,1.10
2019-03-12T16:14:09.414Z,1.20
2019-03-12T16:16:56.712Z,1.00
2019-03-12T16:19:44.519Z,1.20
2019-03-12T16:22:31.975Z,1.30
2019-03-12T16:25:19.438Z,1.53
2019-03-12T16:28:07.542Z,1.30
2019-03-12T16:30:55.817Z,1.20
2019-03-12T16:33:43.500Z,0.90
2019-03-12T16:36:30.917Z,1.23
2019-03-12T16:39:19.366Z,1.23
2019-03-12T16:42:07.302Z,1.30
2019-03-12T16:44:55.411Z,1.10
2019-03-12T16:47:42.881Z,1.60
2019-03-12T16:50:30.436Z,1.00
2019-03-12T16:53:17.903Z,1.27
2019-03-12T16:56:05.388Z,1.57
2019-03-12T16:58:53.298Z,1.20
2019-03-12T17:01:41.829Z,1.30
2019-03-12T17:04:29.468Z,1.00
2019-03-12T17:07:18.596Z,1.10
2019-03-12T17:10:07.647Z,1.27
2019-03-12T17:12:55.651Z,1.40
2019-03-12T17:15:45.338Z,1.43
2019-03-12T17:18:33.763Z,1.27
2019-03-12T17:21:21.521Z,1.10
2019-03-12T17:24:09.522Z,1.23
2019-03-12T17:26:57.505Z,1.47
2019-03-12T17:29:48.515Z,1.30
2019-03-12T17:32:36.363Z,1.20
2019-03-12T17:35:25.390Z,1.37
2019-03-12T17:38:13.460Z,1.37
2019-03-12T17:41:01.558Z,1.60
2019-03-12T17:43:49.350Z,1.40
2019-03-12T17:46:37.149Z,1.30
2019-03-12T17:49:30.928Z,1.30
2019-03-12T17:52:18.681Z,1.60
2019-03-12T17:55:08.278Z,1.20
2019-03-12T17:57:56.014Z,1.50
2019-03-12T18:00:45.394Z,1.40
2019-03-12T18:03:33.462Z,1.53
2019-03-12T18:06:21.191Z,1.50
2019-03-12T18:09:09.122Z,1.53
2019-03-12T18:11:57.981Z,1.40
2019-03-12T18:14:48.244Z,1.70
2019-03-12T18:17:36.013Z,1.40
2019-03-12T18:20:23.852Z,1.30
2019-03-12T18:23:11.983Z,1.60
2019-03-12T18:26:00.549Z,1.50
2019-03-12T18:28:48.408Z,1.60
2019-03-12T18:31:36.451Z,1.57
2019-03-12T18:34:24.169Z,1.70
2019-03-12T18:37:11.984Z,1.40
2019-03-12T18:39:59.825Z,2.07
2019-03-12T18:42:48.097Z,2.00
2019-03-12T18:45:36.909Z,1.70
2019-03-12T18:48:24.682Z,1.80
2019-03-12T18:51:14.257Z,2.20
2019-03-12T18:54:02.333Z,1.50
2019-03-12T18:56:50.374Z,1.77
2019-03-12T18:59:38.441Z,1.50
2019-03-12T19:02:26.245Z,1.90
2019-03-12T19:05:14.797Z,1.70
2019-03-12T19:08:02.389Z,1.70
2019-03-12T19:10:51.326Z,2.20
2019-03-12T19:13:41.861Z,1.60
2019-03-12T19:16:34.126Z,1.83
2019-03-12T19:19:22.035Z,1.80
2019-03-12T19:22:17.121Z,1.80
2019-03-12T19:25:05.939Z,1.73
2019-03-12T19:28:00.131Z,2.00
2019-03-12T19:30:57.105Z,2.00
2019-03-12T19:40:47.401Z,1.60
2019-03-12T19:43:38.745Z,1.87
2019-03-12T19:46:27.399Z,1.20
2019-03-12T19:49:18.528Z,1.40
2019-03-12T19:52:09.859Z,1.27
2019-03-12T19:54:59.926Z,1.37
2019-03-12T19:57:54.862Z,1.70
2019-03-12T20:00:44.702Z,1.23
2019-03-12T20:03:33.403Z,1.50
2019-03-12T20:06:25.546Z,1.37
2019-03-12T20:09:28.777Z,1.37
2019-03-12T20:13:02.063Z,1.30
2019-03-12T20:16:28.592Z,1.23
2019-03-12T20:19:56.352Z,1.20
2019-03-12T20:23:17.715Z,1.53
2019-03-12T20:26:54.895Z,1.70
2019-03-12T20:30:23.055Z,1.40
2019-03-12T20:34:18.042Z,1.70
2019-03-12T20:37:40.872Z,1.70
2019-03-12T20:41:31.551Z,1.40
2019-03-12T20:45:00.507Z,1.70
2019-03-12T20:48:41.304Z,1.40
2019-03-12T20:52:05.005Z,1.53
2019-03-12T20:55:30.191Z,1.40
2019-03-12T20:58:54.948Z,2.20
2019-03-12T21:02:19.797Z,1.80
2019-03-12T21:05:50.830Z,1.50
2019-03-12T21:09:28.031Z,1.30
2019-03-12T21:13:01.709Z,1.47
2019-03-12T21:16:39.794Z,1.80
2019-03-12T21:20:16.853Z,1.60
2019-03-12T21:23:35.711Z,1.60
2019-03-12T21:27:05.115Z,1.57
2019-03-12T21:29:54.320Z,1.57
2019-03-12T21:32:49.676Z,1.73
2019-03-12T21:35:37.872Z,1.20
2019-03-12T21:38:25.744Z,1.23
2019-03-12T21:41:13.654Z,1.53
2019-03-12T21:44:02.466Z,1.63
2019-03-12T21:46:55.776Z,1.60
2019-03-12T21:49:43.214Z,1.63
2019-03-12T21:52:32.979Z,1.60
2019-03-12T21:55:22.289Z,2.03
2019-03-12T21:58:10.632Z,1.50
2019-03-12T22:00:58.533Z,1.50
2019-03-12T22:03:48.106Z,1.70
2019-03-12T22:06:36.548Z,1.60
2019-03-12T22:09:24.489Z,1.70
2019-03-12T22:12:12.314Z,1.60
2019-03-12T22:15:01.015Z,1.80
2019-03-12T22:17:50.005Z,1.60
2019-03-12T22:20:37.912Z,1.77
2019-03-12T22:23:30.394Z,1.60
2019-03-12T22:26:18.750Z,1.43
2019-03-12T22:29:06.739Z,1.67
2019-03-12T22:31:54.480Z,1.97
2019-03-12T22:34:45.405Z,1.43
2019-03-12T22:37:34.160Z,1.80
2019-03-12T22:40:22.405Z,1.60
2019-03-12T22:43:10.642Z,1.50
2019-03-12T22:45:58.556Z,1.63
2019-03-12T22:48:46.223Z,1.70
2019-03-12T22:51:33.833Z,1.50
2019-03-12T22:54:21.939Z,1.70
2019-03-12T22:57:11.382Z,1.50
2019-03-12T22:59:59.496Z,1.87
2019-03-12T23:02:47.623Z,1.60
2019-03-12T23:05:35.579Z,1.20
2019-03-12T23:08:23.465Z,1.80
2019-03-12T23:11:11.689Z,1.23
2019-03-12T23:13:59.628Z,1.47
2019-03-12T23:17:41.085Z,1.77
2019-03-12T23:20:28.537Z,1.67
2019-03-12T23:23:15.626Z,2.20
2019-03-12T23:26:03.253Z,1.23
2019-03-12T23:28:51.298Z,1.70
2019-03-12T23:31:38.974Z,2.27
2019-03-12T23:34:26.445Z,1.80
2019-03-12T23:37:14.361Z,1.60
2019-03-12T23:40:20.762Z,1.50
2019-03-12T23:43:08.601Z,1.30
2019-03-12T23:45:56.313Z,1.70
2019-03-12T23:48:44.058Z,1.50
2019-03-12T23:51:32.092Z,1.60
2019-03-12T23:54:19.662Z,1.33
2019-03-12T23:57:07.925Z,1.97
2019-03-12T23:59:55.671Z,1.70
